sensor_id;sensor_type;location;lat;lon;timestamp;P1;durP1;ratioP1;P2;durP2;ratioP2
11121;SDS011;5615;49.304;10.576;2022-09-16T00:00:05;48.50;;;31.77;;
11121;SDS011;5615;49.304;10.576;2022-09-16T00:02:32;46.57;;;31.83;;
11121;SDS011;5615;49.304;10.576;2022-09-16T00:04:59;53.27;;;32.37;;
11121;SDS011;5615;49.304;10.576;2022-09-16T00:07:27;49.67;;;32.03;;
11121;SDS011;5615;49.304;10.576;2022-09-16T00:09:54;55.43;;;34.10;;
11121;SDS011;5615;49.304;10.576;2022-09-16T00:12:21;53.23;;;33.37;;
11121;SDS011;5615;49.304;10.576;2022-09-16T00:14:47;55.77;;;34.13;;
11121;SDS011;5615;49.304;10.576;2022-09-16T00:17:14;59.20;;;35.00;;
11121;SDS011;5615;49.304;10.576;2022-09-16T00:19:41;58.20;;;35.57;;
11121;SDS011;5615;49.304;10.576;2022-09-16T00:22:07;63.80;;;35.17;;
11121;SDS011;5615;49.304;10.576;2022-09-16T00:24:35;52.33;;;34.73;;
11121;SDS011;5615;49.304;10.576;2022-09-16T00:27:02;55.07;;;35.03;;
11121;SDS011;5615;49.304;10.576;2022-09-16T00:29:29;65.50;;;35.87;;
11121;SDS011;5615;49.304;10.576;2022-09-16T00:31:55;58.60;;;34.17;;
11121;SDS011;5615;49.304;10.576;2022-09-16T00:34:22;52.57;;;34.90;;
11121;SDS011;5615;49.304;10.576;2022-09-16T00:36:49;59.43;;;36.47;;
11121;SDS011;5615;49.304;10.576;2022-09-16T00:39:15;62.87;;;36.70;;
11121;SDS011;5615;49.304;10.576;2022-09-16T00:41:43;56.60;;;34.73;;
11121;SDS011;5615;49.304;10.576;2022-09-16T00:47:10;59.43;;;34.47;;
11121;SDS011;5615;49.304;10.576;2022-09-16T00:49:38;57.03;;;34.60;;
11121;SDS011;5615;49.304;10.576;2022-09-16T00:52:05;61.87;;;36.27;;
11121;SDS011;5615;49.304;10.576;2022-09-16T00:54:33;59.57;;;36.97;;
11121;SDS011;5615;49.304;10.576;2022-09-16T00:57:03;62.03;;;37.07;;
11121;SDS011;5615;49.304;10.576;2022-09-16T00:59:34;65.17;;;38.23;;
11121;SDS011;5615;49.304;10.576;2022-09-16T01:02:05;60.13;;;35.93;;
11121;SDS011;5615;49.304;10.576;2022-09-16T01:04:36;63.80;;;37.70;;
11121;SDS011;5615;49.304;10.576;2022-09-16T01:07:07;62.37;;;36.93;;
11121;SDS011;5615;49.304;10.576;2022-09-16T01:09:33;58.57;;;35.47;;
11121;SDS011;5615;49.304;10.576;2022-09-16T01:12:01;56.23;;;34.50;;
11121;SDS011;5615;49.304;10.576;2022-09-16T01:14:29;54.20;;;33.17;;
11121;SDS011;5615;49.304;10.576;2022-09-16T01:17:14;54.70;;;32.57;;
11121;SDS011;5615;49.304;10.576;2022-09-16T01:19:54;50.33;;;32.77;;
11121;SDS011;5615;49.304;10.576;2022-09-16T01:22:37;56.20;;;33.07;;
11121;SDS011;5615;49.304;10.576;2022-09-16T01:25:19;48.87;;;31.17;;
11121;SDS011;5615;49.304;10.576;2022-09-16T01:28:06;50.43;;;31.27;;
11121;SDS011;5615;49.304;10.576;2022-09-16T01:30:53;45.43;;;29.73;;
11121;SDS011;5615;49.304;10.576;2022-09-16T01:33:30;42.80;;;27.90;;
11121;SDS011;5615;49.304;10.576;2022-09-16T01:36:09;38.30;;;25.73;;
11121;SDS011;5615;49.304;10.576;2022-09-16T01:38:54;35.53;;;24.53;;
11121;SDS011;5615;49.304;10.576;2022-09-16T01:41:34;39.73;;;25.27;;
11121;SDS011;5615;49.304;10.576;2022-09-16T01:44:13;36.50;;;26.27;;
11121;SDS011;5615;49.304;10.576;2022-09-16T01:46:46;37.43;;;26.73;;
11121;SDS011;5615;49.304;10.576;2022-09-16T01:49:17;36.40;;;24.97;;
11121;SDS011;5615;49.304;10.576;2022-09-16T01:51:50;34.83;;;23.97;;
11121;SDS011;5615;49.304;10.576;2022-09-16T01:54:23;38.50;;;24.60;;
11121;SDS011;5615;49.304;10.576;2022-09-16T01:56:56;33.37;;;23.77;;
11121;SDS011;5615;49.304;10.576;2022-09-16T01:59:30;32.10;;;23.30;;
11121;SDS011;5615;49.304;10.576;2022-09-16T02:02:03;33.67;;;23.50;;
11121;SDS011;5615;49.304;10.576;2022-09-16T02:04:35;32.40;;;23.63;;
11121;SDS011;5615;49.304;10.576;2022-09-16T02:07:06;37.83;;;23.70;;
11121;SDS011;5615;49.304;10.576;2022-09-16T02:09:36;32.70;;;23.03;;
11121;SDS011;5615;49.304;10.576;2022-09-16T02:12:08;33.20;;;23.57;;
11121;SDS011;5615;49.304;10.576;2022-09-16T02:14:39;29.20;;;22.13;;
11121;SDS011;5615;49.304;10.576;2022-09-16T02:17:09;32.43;;;22.47;;
11121;SDS011;5615;49.304;10.576;2022-09-16T02:19:40;28.20;;;22.27;;
11121;SDS011;5615;49.304;10.576;2022-09-16T02:22:09;30.53;;;20.73;;
11121;SDS011;5615;49.304;10.576;2022-09-16T02:24:38;29.27;;;20.60;;
11121;SDS011;5615;49.304;10.576;2022-09-16T02:27:08;29.97;;;20.40;;
11121;SDS011;5615;49.304;10.576;2022-09-16T02:29:39;24.53;;;18.37;;
11121;SDS011;5615;49.304;10.576;2022-09-16T02:32:10;26.07;;;18.50;;
11121;SDS011;5615;49.304;10.576;2022-09-16T02:34:39;24.73;;;17.37;;
11121;SDS011;5615;49.304;10.576;2022-09-16T02:37:10;30.30;;;17.07;;
11121;SDS011;5615;49.304;10.576;2022-09-16T02:39:42;25.77;;;18.37;;
11121;SDS011;5615;49.304;10.576;2022-09-16T02:42:12;23.67;;;17.73;;
11121;SDS011;5615;49.304;10.576;2022-09-16T02:44:39;21.13;;;17.57;;
11121;SDS011;5615;49.304;10.576;2022-09-16T02:47:07;25.37;;;17.73;;
11121;SDS011;5615;49.304;10.576;2022-09-16T02:49:40;22.07;;;18.23;;
11121;SDS011;5615;49.304;10.576;2022-09-16T02:52:14;23.83;;;18.40;;
11121;SDS011;5615;49.304;10.576;2022-09-16T02:54:47;24.13;;;18.33;;
11121;SDS011;5615;49.304;10.576;2022-09-16T02:57:18;24.23;;;19.93;;
11121;SDS011;5615;49.304;10.576;2022-09-16T02:59:45;25.97;;;19.93;;
11121;SDS011;5615;49.304;10.576;2022-09-16T03:02:13;25.90;;;19.27;;
11121;SDS011;5615;49.304;10.576;2022-09-16T03:04:40;26.90;;;19.70;;
11121;SDS011;5615;49.304;10.576;2022-09-16T03:07:07;24.63;;;18.83;;
11121;SDS011;5615;49.304;10.576;2022-09-16T03:09:36;22.27;;;17.57;;
11121;SDS011;5615;49.304;10.576;2022-09-16T03:12:09;23.20;;;18.20;;
11121;SDS011;5615;49.304;10.576;2022-09-16T03:17:43;22.97;;;17.57;;
11121;SDS011;5615;49.304;10.576;2022-09-16T03:20:25;23.17;;;17.73;;
11121;SDS011;5615;49.304;10.576;2022-09-16T03:22:59;21.80;;;17.90;;
11121;SDS011;5615;49.304;10.576;2022-09-16T03:25:39;26.93;;;19.80;;
11121;SDS011;5615;49.304;10.576;2022-09-16T03:28:11;25.60;;;19.73;;
11121;SDS011;5615;49.304;10.576;2022-09-16T03:30:42;22.47;;;18.97;;
11121;SDS011;5615;49.304;10.576;2022-09-16T03:33:18;26.47;;;19.47;;
11121;SDS011;5615;49.304;10.576;2022-09-16T03:35:51;24.90;;;19.30;;
11121;SDS011;5615;49.304;10.576;2022-09-16T03:38:22;29.70;;;18.77;;
11121;SDS011;5615;49.304;10.576;2022-09-16T03:40:49;24.37;;;19.60;;
11121;SDS011;5615;49.304;10.576;2022-09-16T03:43:16;21.73;;;18.77;;
11121;SDS011;5615;49.304;10.576;2022-09-16T03:45:43;25.17;;;18.50;;
11121;SDS011;5615;49.304;10.576;2022-09-16T03:48:10;26.80;;;18.67;;
11121;SDS011;5615;49.304;10.576;2022-09-16T03:50:39;24.40;;;17.43;;
11121;SDS011;5615;49.304;10.576;2022-09-16T03:53:06;22.70;;;17.27;;
11121;SDS011;5615;49.304;10.576;2022-09-16T03:55:32;23.67;;;18.47;;
11121;SDS011;5615;49.304;10.576;2022-09-16T03:57:59;19.07;;;15.87;;
11121;SDS011;5615;49.304;10.576;2022-09-16T04:00:26;23.17;;;16.97;;
11121;SDS011;5615;49.304;10.576;2022-09-16T04:02:53;19.00;;;16.20;;
11121;SDS011;5615;49.304;10.576;2022-09-16T04:05:20;20.27;;;15.50;;
11121;SDS011;5615;49.304;10.576;2022-09-16T04:07:48;22.17;;;14.40;;
11121;SDS011;5615;49.304;10.576;2022-09-16T04:10:15;16.90;;;13.33;;
11121;SDS011;5615;49.304;10.576;2022-09-16T04:12:42;19.03;;;13.43;;
11121;SDS011;5615;49.304;10.576;2022-09-16T04:15:09;18.33;;;13.67;;
11121;SDS011;5615;49.304;10.576;2022-09-16T04:17:36;16.83;;;12.40;;
11121;SDS011;5615;49.304;10.576;2022-09-16T04:20:03;17.83;;;12.93;;
11121;SDS011;5615;49.304;10.576;2022-09-16T04:22:32;18.00;;;12.47;;
11121;SDS011;5615;49.304;10.576;2022-09-16T04:25:00;14.37;;;11.40;;
11121;SDS011;5615;49.304;10.576;2022-09-16T04:27:27;16.53;;;11.60;;
11121;SDS011;5615;49.304;10.576;2022-09-16T04:29:54;13.13;;;11.03;;
11121;SDS011;5615;49.304;10.576;2022-09-16T04:32:21;16.80;;;12.77;;
11121;SDS011;5615;49.304;10.576;2022-09-16T04:34:47;17.90;;;13.40;;
11121;SDS011;5615;49.304;10.576;2022-09-16T04:37:14;15.33;;;12.20;;
11121;SDS011;5615;49.304;10.576;2022-09-16T04:39:40;17.87;;;11.90;;
11121;SDS011;5615;49.304;10.576;2022-09-16T04:42:08;14.20;;;12.43;;
11121;SDS011;5615;49.304;10.576;2022-09-16T04:44:36;12.23;;;10.83;;
11121;SDS011;5615;49.304;10.576;2022-09-16T04:47:03;13.50;;;10.83;;
11121;SDS011;5615;49.304;10.576;2022-09-16T04:49:30;17.63;;;10.70;;
11121;SDS011;5615;49.304;10.576;2022-09-16T04:51:56;15.93;;;11.07;;
11121;SDS011;5615;49.304;10.576;2022-09-16T04:54:23;14.33;;;9.83;;
11121;SDS011;5615;49.304;10.576;2022-09-16T04:56:50;15.27;;;10.40;;
11121;SDS011;5615;49.304;10.576;2022-09-16T04:59:18;15.33;;;9.97;;
11121;SDS011;5615;49.304;10.576;2022-09-16T05:01:46;12.20;;;10.63;;
11121;SDS011;5615;49.304;10.576;2022-09-16T05:04:12;12.47;;;9.90;;
11121;SDS011;5615;49.304;10.576;2022-09-16T05:06:39;15.90;;;12.33;;
11121;SDS011;5615;49.304;10.576;2022-09-16T05:09:08;14.50;;;10.27;;
11121;SDS011;5615;49.304;10.576;2022-09-16T05:11:36;13.43;;;10.20;;
11121;SDS011;5615;49.304;10.576;2022-09-16T05:14:04;10.93;;;9.50;;
11121;SDS011;5615;49.304;10.576;2022-09-16T05:16:34;18.07;;;10.90;;
11121;SDS011;5615;49.304;10.576;2022-09-16T05:19:01;14.70;;;10.57;;
11121;SDS011;5615;49.304;10.576;2022-09-16T05:21:29;13.10;;;8.97;;
11121;SDS011;5615;49.304;10.576;2022-09-16T05:23:58;12.80;;;9.70;;
11121;SDS011;5615;49.304;10.576;2022-09-16T05:26:27;16.57;;;9.63;;
11121;SDS011;5615;49.304;10.576;2022-09-16T05:28:55;12.37;;;9.17;;
11121;SDS011;5615;49.304;10.576;2022-09-16T05:31:26;11.43;;;9.10;;
11121;SDS011;5615;49.304;10.576;2022-09-16T05:33:56;13.73;;;9.57;;
11121;SDS011;5615;49.304;10.576;2022-09-16T05:36:24;12.83;;;8.70;;
11121;SDS011;5615;49.304;10.576;2022-09-16T05:38:52;11.60;;;8.53;;
11121;SDS011;5615;49.304;10.576;2022-09-16T05:41:19;12.13;;;9.70;;
11121;SDS011;5615;49.304;10.576;2022-09-16T05:43:45;10.57;;;8.60;;
11121;SDS011;5615;49.304;10.576;2022-09-16T05:46:15;11.70;;;7.97;;
11121;SDS011;5615;49.304;10.576;2022-09-16T05:48:43;12.23;;;8.20;;
11121;SDS011;5615;49.304;10.576;2022-09-16T05:51:12;12.67;;;8.10;;
11121;SDS011;5615;49.304;10.576;2022-09-16T05:53:40;13.90;;;8.33;;
11121;SDS011;5615;49.304;10.576;2022-09-16T05:56:09;10.10;;;8.00;;
11121;SDS011;5615;49.304;10.576;2022-09-16T05:58:38;10.47;;;8.40;;
11121;SDS011;5615;49.304;10.576;2022-09-16T06:01:06;11.90;;;8.43;;
11121;SDS011;5615;49.304;10.576;2022-09-16T06:03:34;11.97;;;8.33;;
11121;SDS011;5615;49.304;10.576;2022-09-16T06:06:02;10.30;;;8.37;;
11121;SDS011;5615;49.304;10.576;2022-09-16T06:08:32;13.93;;;7.83;;
11121;SDS011;5615;49.304;10.576;2022-09-16T06:11:00;10.17;;;6.90;;
11121;SDS011;5615;49.304;10.576;2022-09-16T06:13:27;7.80;;;6.33;;
11121;SDS011;5615;49.304;10.576;2022-09-16T06:15:54;8.60;;;6.50;;
11121;SDS011;5615;49.304;10.576;2022-09-16T06:18:21;10.53;;;7.00;;
11121;SDS011;5615;49.304;10.576;2022-09-16T06:20:48;9.10;;;6.47;;
11121;SDS011;5615;49.304;10.576;2022-09-16T06:23:15;6.67;;;5.93;;
11121;SDS011;5615;49.304;10.576;2022-09-16T06:25:44;8.60;;;6.57;;
11121;SDS011;5615;49.304;10.576;2022-09-16T06:28:11;8.90;;;5.83;;
11121;SDS011;5615;49.304;10.576;2022-09-16T06:30:39;14.17;;;5.80;;
11121;SDS011;5615;49.304;10.576;2022-09-16T06:33:06;11.57;;;5.17;;
11121;SDS011;5615;49.304;10.576;2022-09-16T06:35:35;10.53;;;5.40;;
11121;SDS011;5615;49.304;10.576;2022-09-16T06:38:01;7.87;;;4.90;;
11121;SDS011;5615;49.304;10.576;2022-09-16T06:40:28;10.83;;;5.17;;
11121;SDS011;5615;49.304;10.576;2022-09-16T06:42:56;9.90;;;5.30;;
11121;SDS011;5615;49.304;10.576;2022-09-16T06:45:24;10.67;;;5.03;;
11121;SDS011;5615;49.304;10.576;2022-09-16T06:47:53;7.27;;;4.93;;
11121;SDS011;5615;49.304;10.576;2022-09-16T06:50:24;6.07;;;4.50;;
11121;SDS011;5615;49.304;10.576;2022-09-16T06:52:50;8.27;;;4.70;;
11121;SDS011;5615;49.304;10.576;2022-09-16T06:55:17;10.27;;;4.77;;
11121;SDS011;5615;49.304;10.576;2022-09-16T06:57:43;5.53;;;4.13;;
11121;SDS011;5615;49.304;10.576;2022-09-16T07:00:12;6.00;;;3.63;;
11121;SDS011;5615;49.304;10.576;2022-09-16T07:02:39;7.60;;;3.83;;
11121;SDS011;5615;49.304;10.576;2022-09-16T07:05:06;13.03;;;4.30;;
11121;SDS011;5615;49.304;10.576;2022-09-16T07:07:33;6.17;;;3.63;;
11121;SDS011;5615;49.304;10.576;2022-09-16T07:10:00;4.37;;;3.47;;
11121;SDS011;5615;49.304;10.576;2022-09-16T07:12:27;9.00;;;3.50;;
11121;SDS011;5615;49.304;10.576;2022-09-16T07:14:54;6.07;;;3.50;;
11121;SDS011;5615;49.304;10.576;2022-09-16T07:17:22;9.33;;;4.23;;
11121;SDS011;5615;49.304;10.576;2022-09-16T07:19:51;7.20;;;3.43;;
11121;SDS011;5615;49.304;10.576;2022-09-16T07:22:17;6.57;;;3.40;;
11121;SDS011;5615;49.304;10.576;2022-09-16T07:24:44;8.73;;;3.50;;
11121;SDS011;5615;49.304;10.576;2022-09-16T07:27:11;7.00;;;3.70;;
11121;SDS011;5615;49.304;10.576;2022-09-16T07:29:38;4.67;;;3.03;;
11121;SDS011;5615;49.304;10.576;2022-09-16T07:32:05;5.57;;;3.23;;
11121;SDS011;5615;49.304;10.576;2022-09-16T07:34:33;5.87;;;3.10;;
11121;SDS011;5615;49.304;10.576;2022-09-16T07:37:00;8.60;;;3.90;;
11121;SDS011;5615;49.304;10.576;2022-09-16T07:39:27;4.50;;;3.20;;
11121;SDS011;5615;49.304;10.576;2022-09-16T07:41:53;6.83;;;3.10;;
11121;SDS011;5615;49.304;10.576;2022-09-16T07:44:21;8.23;;;3.40;;
11121;SDS011;5615;49.304;10.576;2022-09-16T07:46:48;5.93;;;3.47;;
11121;SDS011;5615;49.304;10.576;2022-09-16T07:49:15;6.97;;;2.90;;
11121;SDS011;5615;49.304;10.576;2022-09-16T07:51:43;5.83;;;3.43;;
11121;SDS011;5615;49.304;10.576;2022-09-16T07:54:10;3.40;;;2.67;;
11121;SDS011;5615;49.304;10.576;2022-09-16T07:56:38;6.53;;;2.90;;
11121;SDS011;5615;49.304;10.576;2022-09-16T07:59:06;6.70;;;2.80;;
11121;SDS011;5615;49.304;10.576;2022-09-16T08:01:35;8.30;;;3.30;;
11121;SDS011;5615;49.304;10.576;2022-09-16T08:04:02;4.70;;;2.87;;
11121;SDS011;5615;49.304;10.576;2022-09-16T08:06:29;9.53;;;3.23;;
11121;SDS011;5615;49.304;10.576;2022-09-16T08:08:59;5.53;;;3.73;;
11121;SDS011;5615;49.304;10.576;2022-09-16T08:11:26;5.97;;;2.97;;
11121;SDS011;5615;49.304;10.576;2022-09-16T08:13:54;6.47;;;3.00;;
11121;SDS011;5615;49.304;10.576;2022-09-16T08:16:22;5.57;;;2.83;;
11121;SDS011;5615;49.304;10.576;2022-09-16T08:18:49;6.13;;;2.87;;
11121;SDS011;5615;49.304;10.576;2022-09-16T08:21:18;3.17;;;2.60;;
11121;SDS011;5615;49.304;10.576;2022-09-16T08:23:47;6.40;;;2.80;;
11121;SDS011;5615;49.304;10.576;2022-09-16T08:26:15;4.63;;;2.30;;
11121;SDS011;5615;49.304;10.576;2022-09-16T08:28:43;3.87;;;2.50;;
11121;SDS011;5615;49.304;10.576;2022-09-16T08:31:11;6.60;;;2.90;;
11121;SDS011;5615;49.304;10.576;2022-09-16T08:33:38;5.50;;;2.40;;
11121;SDS011;5615;49.304;10.576;2022-09-16T08:36:06;5.93;;;2.83;;
11121;SDS011;5615;49.304;10.576;2022-09-16T08:38:38;5.47;;;2.70;;
11121;SDS011;5615;49.304;10.576;2022-09-16T08:41:05;3.97;;;2.50;;
11121;SDS011;5615;49.304;10.576;2022-09-16T08:43:46;6.00;;;3.10;;
11121;SDS011;5615;49.304;10.576;2022-09-16T08:46:22;8.43;;;2.93;;
11121;SDS011;5615;49.304;10.576;2022-09-16T08:48:57;3.50;;;2.43;;
11121;SDS011;5615;49.304;10.576;2022-09-16T08:51:28;5.50;;;2.90;;
11121;SDS011;5615;49.304;10.576;2022-09-16T08:53:55;4.40;;;2.93;;
11121;SDS011;5615;49.304;10.576;2022-09-16T08:56:26;5.23;;;3.00;;
11121;SDS011;5615;49.304;10.576;2022-09-16T08:58:56;7.57;;;2.63;;
11121;SDS011;5615;49.304;10.576;2022-09-16T09:01:26;4.47;;;2.27;;
11121;SDS011;5615;49.304;10.576;2022-09-16T09:04:03;4.90;;;2.57;;
11121;SDS011;5615;49.304;10.576;2022-09-16T09:06:38;6.50;;;2.53;;
11121;SDS011;5615;49.304;10.576;2022-09-16T09:09:20;3.23;;;2.13;;
11121;SDS011;5615;49.304;10.576;2022-09-16T09:12:02;5.60;;;2.70;;
11121;SDS011;5615;49.304;10.576;2022-09-16T09:14:35;4.23;;;2.43;;
11121;SDS011;5615;49.304;10.576;2022-09-16T09:17:13;5.00;;;2.20;;
11121;SDS011;5615;49.304;10.576;2022-09-16T09:19:51;4.07;;;2.50;;
11121;SDS011;5615;49.304;10.576;2022-09-16T09:22:30;3.77;;;2.30;;
11121;SDS011;5615;49.304;10.576;2022-09-16T09:25:19;3.50;;;2.00;;
11121;SDS011;5615;49.304;10.576;2022-09-16T09:27:53;3.23;;;2.00;;
11121;SDS011;5615;49.304;10.576;2022-09-16T09:30:29;5.70;;;2.27;;
11121;SDS011;5615;49.304;10.576;2022-09-16T09:33:03;8.37;;;2.20;;
11121;SDS011;5615;49.304;10.576;2022-09-16T09:35:40;5.10;;;2.20;;
11121;SDS011;5615;49.304;10.576;2022-09-16T09:41:07;5.70;;;2.20;;
11121;SDS011;5615;49.304;10.576;2022-09-16T09:43:38;4.13;;;2.40;;
11121;SDS011;5615;49.304;10.576;2022-09-16T09:46:11;8.47;;;2.70;;
11121;SDS011;5615;49.304;10.576;2022-09-16T09:48:43;5.00;;;2.40;;
11121;SDS011;5615;49.304;10.576;2022-09-16T09:51:15;2.90;;;2.33;;
11121;SDS011;5615;49.304;10.576;2022-09-16T09:53:48;4.30;;;2.33;;
11121;SDS011;5615;49.304;10.576;2022-09-16T09:56:19;8.13;;;2.87;;
11121;SDS011;5615;49.304;10.576;2022-09-16T09:58:52;4.63;;;2.17;;
11121;SDS011;5615;49.304;10.576;2022-09-16T10:01:27;3.90;;;2.23;;
11121;SDS011;5615;49.304;10.576;2022-09-16T10:03:53;5.50;;;2.40;;
11121;SDS011;5615;49.304;10.576;2022-09-16T10:06:24;5.53;;;2.60;;
11121;SDS011;5615;49.304;10.576;2022-09-16T10:08:54;7.77;;;2.50;;
11121;SDS011;5615;49.304;10.576;2022-09-16T10:11:25;4.23;;;2.40;;
11121;SDS011;5615;49.304;10.576;2022-09-16T10:13:54;5.97;;;2.47;;
11121;SDS011;5615;49.304;10.576;2022-09-16T10:16:24;3.73;;;2.47;;
11121;SDS011;5615;49.304;10.576;2022-09-16T10:18:57;5.27;;;2.37;;
11121;SDS011;5615;49.304;10.576;2022-09-16T10:21:36;4.43;;;2.20;;
11121;SDS011;5615;49.304;10.576;2022-09-16T10:24:18;4.47;;;2.97;;
11121;SDS011;5615;49.304;10.576;2022-09-16T10:26:53;5.27;;;2.83;;
11121;SDS011;5615;49.304;10.576;2022-09-16T10:29:22;3.90;;;2.67;;
11121;SDS011;5615;49.304;10.576;2022-09-16T10:31:48;3.83;;;2.40;;
11121;SDS011;5615;49.304;10.576;2022-09-16T10:34:17;9.87;;;3.47;;
11121;SDS011;5615;49.304;10.576;2022-09-16T10:36:58;4.33;;;2.97;;
11121;SDS011;5615;49.304;10.576;2022-09-16T10:39:30;5.53;;;2.80;;
11121;SDS011;5615;49.304;10.576;2022-09-16T10:41:57;5.67;;;3.03;;
11121;SDS011;5615;49.304;10.576;2022-09-16T10:44:26;6.77;;;2.90;;
11121;SDS011;5615;49.304;10.576;2022-09-16T10:46:55;3.50;;;2.70;;
11121;SDS011;5615;49.304;10.576;2022-09-16T10:49:28;4.13;;;2.70;;
11121;SDS011;5615;49.304;10.576;2022-09-16T10:52:07;4.50;;;3.37;;
11121;SDS011;5615;49.304;10.576;2022-09-16T10:54:39;4.10;;;2.80;;
11121;SDS011;5615;49.304;10.576;2022-09-16T10:57:17;6.77;;;3.07;;
11121;SDS011;5615;49.304;10.576;2022-09-16T10:59:57;4.57;;;3.37;;
11121;SDS011;5615;49.304;10.576;2022-09-16T11:02:29;6.13;;;3.90;;
11121;SDS011;5615;49.304;10.576;2022-09-16T11:05:09;8.60;;;4.57;;
11121;SDS011;5615;49.304;10.576;2022-09-16T11:07:44;5.93;;;4.67;;
11121;SDS011;5615;49.304;10.576;2022-09-16T11:10:19;7.53;;;4.50;;
11121;SDS011;5615;49.304;10.576;2022-09-16T11:12:59;10.43;;;4.93;;
11121;SDS011;5615;49.304;10.576;2022-09-16T11:15:49;7.47;;;5.00;;
11121;SDS011;5615;49.304;10.576;2022-09-16T11:18:34;5.33;;;4.83;;
11121;SDS011;5615;49.304;10.576;2022-09-16T11:21:17;10.13;;;5.33;;
11121;SDS011;5615;49.304;10.576;2022-09-16T11:23:57;6.87;;;5.77;;
11121;SDS011;5615;49.304;10.576;2022-09-16T11:26:38;6.63;;;5.13;;
11121;SDS011;5615;49.304;10.576;2022-09-16T11:29:21;5.97;;;5.07;;
11121;SDS011;5615;49.304;10.576;2022-09-16T11:32:09;8.30;;;5.30;;
11121;SDS011;5615;49.304;10.576;2022-09-16T11:34:44;6.67;;;5.43;;
11121;SDS011;5615;49.304;10.576;2022-09-16T11:37:22;8.77;;;5.40;;
11121;SDS011;5615;49.304;10.576;2022-09-16T11:39:58;6.00;;;5.40;;
11121;SDS011;5615;49.304;10.576;2022-09-16T11:42:37;7.27;;;4.57;;
11121;SDS011;5615;49.304;10.576;2022-09-16T11:45:17;6.60;;;5.20;;
11121;SDS011;5615;49.304;10.576;2022-09-16T11:48:01;7.53;;;5.23;;
11121;SDS011;5615;49.304;10.576;2022-09-16T11:50:44;5.97;;;4.77;;
11121;SDS011;5615;49.304;10.576;2022-09-16T11:53:24;6.60;;;4.90;;
11121;SDS011;5615;49.304;10.576;2022-09-16T11:56:05;5.97;;;4.77;;
11121;SDS011;5615;49.304;10.576;2022-09-16T11:58:37;5.87;;;4.47;;
11121;SDS011;5615;49.304;10.576;2022-09-16T12:01:24;6.73;;;4.90;;
11121;SDS011;5615;49.304;10.576;2022-09-16T12:03:59;7.13;;;4.37;;
11121;SDS011;5615;49.304;10.576;2022-09-16T12:06:33;8.43;;;4.70;;
11121;SDS011;5615;49.304;10.576;2022-09-16T12:09:08;5.97;;;4.67;;
11121;SDS011;5615;49.304;10.576;2022-09-16T12:11:41;5.63;;;3.83;;
11121;SDS011;5615;49.304;10.576;2022-09-16T12:14:12;6.27;;;3.90;;
11121;SDS011;5615;49.304;10.576;2022-09-16T12:16:42;5.07;;;3.50;;
11121;SDS011;5615;49.304;10.576;2022-09-16T12:19:16;4.17;;;3.57;;
11121;SDS011;5615;49.304;10.576;2022-09-16T12:21:47;6.90;;;3.47;;
11121;SDS011;5615;49.304;10.576;2022-09-16T12:24:18;4.80;;;3.30;;
11121;SDS011;5615;49.304;10.576;2022-09-16T12:26:52;5.60;;;3.00;;
11121;SDS011;5615;49.304;10.576;2022-09-16T12:29:25;4.07;;;3.07;;
11121;SDS011;5615;49.304;10.576;2022-09-16T12:31:57;8.33;;;3.77;;
11121;SDS011;5615;49.304;10.576;2022-09-16T12:34:31;6.87;;;3.97;;
11121;SDS011;5615;49.304;10.576;2022-09-16T12:37:05;4.47;;;3.33;;
11121;SDS011;5615;49.304;10.576;2022-09-16T12:39:48;6.50;;;3.67;;
11121;SDS011;5615;49.304;10.576;2022-09-16T12:42:24;7.27;;;4.43;;
11121;SDS011;5615;49.304;10.576;2022-09-16T12:45:24;7.50;;;3.60;;
11121;SDS011;5615;49.304;10.576;2022-09-16T12:48:22;8.20;;;4.13;;
11121;SDS011;5615;49.304;10.576;2022-09-16T12:51:09;4.27;;;3.40;;
11121;SDS011;5615;49.304;10.576;2022-09-16T12:54:05;5.73;;;3.67;;
11121;SDS011;5615;49.304;10.576;2022-09-16T12:56:58;6.27;;;3.30;;
11121;SDS011;5615;49.304;10.576;2022-09-16T12:59:51;6.50;;;3.17;;
11121;SDS011;5615;49.304;10.576;2022-09-16T13:02:33;4.55;;;2.88;;
11121;SDS011;5615;49.304;10.576;2022-09-16T13:05:07;5.95;;;3.00;;
11121;SDS011;5615;49.304;10.576;2022-09-16T13:07:39;3.58;;;2.50;;
11121;SDS011;5615;49.304;10.576;2022-09-16T13:10:07;3.55;;;2.60;;
11121;SDS011;5615;49.304;10.576;2022-09-16T13:12:48;4.32;;;3.00;;
11121;SDS011;5615;49.304;10.576;2022-09-16T13:15:21;6.45;;;3.22;;
11121;SDS011;5615;49.304;10.576;2022-09-16T13:17:50;6.35;;;3.17;;
11121;SDS011;5615;49.304;10.576;2022-09-16T13:20:18;6.40;;;3.35;;
11121;SDS011;5615;49.304;10.576;2022-09-16T13:22:55;7.70;;;3.20;;
11121;SDS011;5615;49.304;10.576;2022-09-16T13:25:28;6.95;;;3.30;;
11121;SDS011;5615;49.304;10.576;2022-09-16T13:27:58;9.73;;;2.80;;
11121;SDS011;5615;49.304;10.576;2022-09-16T13:30:30;5.45;;;2.80;;
11121;SDS011;5615;49.304;10.576;2022-09-16T13:36:11;6.13;;;2.60;;
11121;SDS011;5615;49.304;10.576;2022-09-16T13:38:42;4.90;;;2.30;;
11121;SDS011;5615;49.304;10.576;2022-09-16T13:41:11;4.40;;;2.42;;
11121;SDS011;5615;49.304;10.576;2022-09-16T13:43:49;3.50;;;2.30;;
11121;SDS011;5615;49.304;10.576;2022-09-16T13:46:25;3.58;;;2.30;;
11121;SDS011;5615;49.304;10.576;2022-09-16T13:48:58;4.90;;;2.50;;
11121;SDS011;5615;49.304;10.576;2022-09-16T13:51:38;5.22;;;2.67;;
11121;SDS011;5615;49.304;10.576;2022-09-16T13:54:18;4.82;;;2.60;;
11121;SDS011;5615;49.304;10.576;2022-09-16T13:57:01;3.67;;;2.70;;
11121;SDS011;5615;49.304;10.576;2022-09-16T13:59:48;4.97;;;2.63;;
11121;SDS011;5615;49.304;10.576;2022-09-16T14:02:32;5.05;;;2.85;;
11121;SDS011;5615;49.304;10.576;2022-09-16T14:05:11;11.25;;;2.88;;
11121;SDS011;5615;49.304;10.576;2022-09-16T14:07:54;3.70;;;2.72;;
11121;SDS011;5615;49.304;10.576;2022-09-16T14:10:28;6.78;;;3.35;;
11121;SDS011;5615;49.304;10.576;2022-09-16T14:13:01;4.63;;;2.70;;
11121;SDS011;5615;49.304;10.576;2022-09-16T14:15:35;6.88;;;3.70;;
11121;SDS011;5615;49.304;10.576;2022-09-16T14:18:05;5.18;;;3.30;;
11121;SDS011;5615;49.304;10.576;2022-09-16T14:20:36;9.80;;;3.40;;
11121;SDS011;5615;49.304;10.576;2022-09-16T14:23:04;6.43;;;4.03;;
11121;SDS011;5615;49.304;10.576;2022-09-16T14:25:40;4.77;;;3.53;;
11121;SDS011;5615;49.304;10.576;2022-09-16T14:28:17;4.63;;;3.40;;
11121;SDS011;5615;49.304;10.576;2022-09-16T14:30:46;5.73;;;4.57;;
11121;SDS011;5615;49.304;10.576;2022-09-16T14:33:17;6.70;;;4.60;;
11121;SDS011;5615;49.304;10.576;2022-09-16T14:35:47;8.10;;;4.50;;
11121;SDS011;5615;49.304;10.576;2022-09-16T14:38:15;8.17;;;5.00;;
11121;SDS011;5615;49.304;10.576;2022-09-16T14:40:47;5.70;;;5.17;;
11121;SDS011;5615;49.304;10.576;2022-09-16T14:43:14;7.07;;;5.10;;
11121;SDS011;5615;49.304;10.576;2022-09-16T14:45:44;13.00;;;6.30;;
11121;SDS011;5615;49.304;10.576;2022-09-16T14:48:14;10.90;;;6.03;;
11121;SDS011;5615;49.304;10.576;2022-09-16T14:50:43;8.20;;;5.30;;
11121;SDS011;5615;49.304;10.576;2022-09-16T14:53:23;9.60;;;6.47;;
11121;SDS011;5615;49.304;10.576;2022-09-16T14:55:53;9.97;;;4.17;;
11121;SDS011;5615;49.304;10.576;2022-09-16T14:58:20;10.27;;;2.83;;
11121;SDS011;5615;49.304;10.576;2022-09-16T15:00:49;5.00;;;2.60;;
11121;SDS011;5615;49.304;10.576;2022-09-16T15:03:20;7.07;;;3.23;;
11121;SDS011;5615;49.304;10.576;2022-09-16T15:05:50;7.33;;;4.40;;
11121;SDS011;5615;49.304;10.576;2022-09-16T15:08:20;7.03;;;5.27;;
11121;SDS011;5615;49.304;10.576;2022-09-16T15:10:51;9.07;;;5.83;;
11121;SDS011;5615;49.304;10.576;2022-09-16T15:13:22;10.33;;;6.40;;
11121;SDS011;5615;49.304;10.576;2022-09-16T15:15:53;11.63;;;6.87;;